Time;durP1;ratioP1;P1;durP2;ratioP2;P2;SDS_P1;SDS_P2;PMS_P1;PMS_P2;Temp;Humidity;BMP_temperature;BMP_pressure;BME280_temperature;BME280_humidity;BME280_pressure;Samples;Min_cycle;Max_cycle;Signal;HPM_P1;HPM_P2
2022/04/07 00:00:44;;;;;;;28.60;2.67;;;11.30;32.50;;;;;;5065467;28;20862;-61
2022/04/07 00:03:11;;;;;;;28.53;2.80;;;11.30;33.10;;;;;;5058354;28;20500;-60
2022/04/07 00:05:37;;;;;;;30.53;2.87;;;11.30;33.70;;;;;;5061799;28;20464;-60
2022/04/07 00:08:05;;;;;;;28.60;3.33;;;11.30;33.90;;;;;;5057977;28;20477;-61
2022/04/07 00:10:34;;;;;;;29.20;3.23;;;11.30;34.10;;;;;;5059457;28;20473;-61
2022/04/07 00:13:01;;;;;;;29.33;2.80;;;11.30;34.30;;;;;;5062705;28;20465;-61
2022/04/07 00:15:28;;;;;;;28.60;2.53;;;11.30;34.80;;;;;;5062342;28;20457;-61
2022/04/07 00:17:54;;;;;;;28.97;2.63;;;11.30;34.70;;;;;;5070101;28;21037;-60
2022/04/07 00:20:22;;;;;;;29.50;3.10;;;11.30;34.90;;;;;;5069505;28;20472;-61
2022/04/07 00:22:48;;;;;;;29.27;2.83;;;11.30;35.20;;;;;;5063426;28;20462;-61
2022/04/07 00:25:15;;;;;;;29.17;3.60;;;11.30;35.30;;;;;;5058913;28;20466;-61
2022/04/07 00:27:44;;;;;;;29.20;3.30;;;11.30;35.10;;;;;;5067412;28;20457;-62
2022/04/07 00:30:13;;;;;;;28.93;2.57;;;11.30;35.30;;;;;;5065997;28;20457;-62
2022/04/07 00:32:43;;;;;;;28.30;2.40;;;11.30;35.30;;;;;;5062783;28;20476;-61
2022/04/07 00:35:10;;;;;;;29.33;2.90;;;11.20;35.60;;;;;;5064888;28;20468;-60
2022/04/07 00:37:37;;;;;;;29.37;2.73;;;11.20;35.10;;;;;;5065649;28;20498;-61
2022/04/07 00:40:06;;;;;;;29.17;3.03;;;11.20;35.20;;;;;;5067577;28;20461;-60
2022/04/07 00:42:32;;;;;;;30.00;2.77;;;11.20;35.30;;;;;;5053842;28;20462;-60
2022/04/07 00:45:00;;;;;;;29.27;3.23;;;11.20;35.30;;;;;;5059627;28;20465;-61
2022/04/07 00:47:27;;;;;;;29.30;2.80;;;11.20;35.40;;;;;;5056753;28;20462;-61
2022/04/07 00:49:54;;;;;;;30.10;2.80;;;11.10;35.60;;;;;;5068454;28;20488;-61
2022/04/07 00:52:21;;;;;;;29.90;3.33;;;11.10;35.60;;;;;;5059909;28;20464;-60
2022/04/07 00:54:49;;;;;;;30.10;3.20;;;11.10;35.80;;;;;;5067661;28;20464;-61
2022/04/07 00:57:16;;;;;;;30.13;3.23;;;11.10;36.00;;;;;;5063776;28;20523;-62
2022/04/07 00:59:43;;;;;;;31.27;3.10;;;11.00;36.00;;;;;;5058775;28;20485;-61
2022/04/07 01:02:11;;;;;;;30.10;4.40;;;11.00;36.20;;;;;;5063526;28;21009;-58
2022/04/07 01:04:38;;;;;;;30.27;3.60;;;11.00;36.30;;;;;;5056613;28;20466;-61
2022/04/07 01:07:07;;;;;;;29.50;3.70;;;11.00;36.40;;;;;;5064811;28;20524;-60
2022/04/07 01:09:34;;;;;;;29.67;3.33;;;11.00;36.60;;;;;;5065490;28;20484;-61
2022/04/07 01:12:01;;;;;;;30.07;3.23;;;11.00;36.40;;;;;;5064120;28;20453;-60
2022/04/07 01:14:28;;;;;;;29.90;3.20;;;11.00;36.50;;;;;;5067848;28;20465;-62
2022/04/07 01:16:54;;;;;;;29.83;3.33;;;11.00;36.60;;;;;;5067201;28;20483;-61
2022/04/07 01:19:22;;;;;;;29.70;3.63;;;11.00;36.70;;;;;;5062635;28;20955;-61
2022/04/07 01:21:49;;;;;;;30.20;3.37;;;11.00;36.80;;;;;;5064219;28;20458;-61
2022/04/07 01:24:18;;;;;;;29.70;3.07;;;11.00;36.70;;;;;;5062782;28;20457;-62
2022/04/07 01:26:47;;;;;;;30.70;3.37;;;10.90;36.60;;;;;;5066394;28;20470;-61
2022/04/07 01:29:15;;;;;;;29.97;3.63;;;10.90;36.80;;;;;;5069298;28;20473;-61
2022/04/07 01:31:43;;;;;;;30.17;3.40;;;10.90;36.70;;;;;;5063560;28;20473;-61
2022/04/07 01:34:13;;;;;;;29.57;3.00;;;10.80;37.00;;;;;;5055772;28;20902;-61
2022/04/07 01:36:42;;;;;;;29.50;3.50;;;10.80;36.90;;;;;;5064822;28;20468;-61
2022/04/07 01:39:10;;;;;;;30.30;3.93;;;10.80;37.00;;;;;;5057488;28;20485;-62
2022/04/07 01:41:39;;;;;;;30.80;4.10;;;10.80;37.10;;;;;;5060467;28;20475;-61
2022/04/07 01:44:10;;;;;;;30.80;4.27;;;10.80;37.20;;;;;;5057589;28;20465;-62
2022/04/07 01:46:38;;;;;;;29.97;3.50;;;10.80;37.20;;;;;;5062469;28;20462;-62
2022/04/07 01:49:06;;;;;;;30.13;3.10;;;10.70;37.20;;;;;;5059131;28;20527;-61
2022/04/07 01:51:35;;;;;;;30.77;3.13;;;10.80;37.30;;;;;;5063181;28;20461;-60
2022/04/07 01:54:03;;;;;;;30.17;3.50;;;10.70;37.30;;;;;;5064087;28;20464;-60
2022/04/07 01:56:31;;;;;;;36.83;3.03;;;10.70;37.30;;;;;;5066566;28;20531;-59
2022/04/07 01:58:57;;;;;;;30.47;3.20;;;10.70;37.40;;;;;;5058919;28;20488;-62
2022/04/07 02:01:26;;;;;;;32.63;3.40;;;10.60;37.40;;;;;;5063511;28;21250;-61
2022/04/07 02:03:52;;;;;;;30.17;2.70;;;10.70;37.60;;;;;;5064746;28;20473;-61
2022/04/07 02:06:20;;;;;;;31.00;3.23;;;10.70;37.80;;;;;;5061413;28;20500;-60
2022/04/07 02:08:47;;;;;;;30.20;3.20;;;10.70;37.90;;;;;;5058023;28;20480;-61
2022/04/07 02:11:14;;;;;;;30.10;2.90;;;10.70;38.30;;;;;;5067487;28;20457;-61
2022/04/07 02:13:42;;;;;;;30.10;2.80;;;10.70;38.20;;;;;;5064392;28;20639;-61
2022/04/07 02:16:10;;;;;;;31.23;3.30;;;10.60;38.10;;;;;;5063510;28;20468;-61
2022/04/07 02:18:39;;;;;;;30.00;3.63;;;10.60;38.30;;;;;;5059611;28;21129;-61
2022/04/07 02:21:06;;;;;;;30.33;2.67;;;10.50;38.30;;;;;;5062153;28;20464;-60
2022/04/07 02:23:34;;;;;;;31.00;3.20;;;10.50;38.40;;;;;;5062991;28;20471;-61
2022/04/07 02:26:01;;;;;;;30.77;3.80;;;10.40;38.20;;;;;;5065860;28;20460;-62
2022/04/07 02:28:28;;;;;;;31.20;3.00;;;10.40;38.40;;;;;;5062570;28;20473;-61
2022/04/07 02:30:54;;;;;;;30.30;3.10;;;10.40;38.40;;;;;;5058245;28;20473;-62
2022/04/07 02:33:21;;;;;;;30.50;2.77;;;10.40;38.20;;;;;;5057636;28;20457;-61
2022/04/07 02:35:50;;;;;;;30.13;2.40;;;10.40;37.80;;;;;;5058850;28;20458;-62
2022/04/07 02:38:17;;;;;;;31.23;2.70;;;10.30;37.50;;;;;;5065621;28;21038;-61
2022/04/07 02:40:44;;;;;;;30.70;2.70;;;10.30;37.70;;;;;;5061715;28;20874;-61
2022/04/07 02:43:10;;;;;;;30.83;2.90;;;10.30;38.00;;;;;;5066683;28;20468;-60
2022/04/07 02:45:37;;;;;;;31.70;3.00;;;10.30;38.40;;;;;;5064654;28;20457;-62
2022/04/07 02:48:04;;;;;;;30.57;3.00;;;10.30;38.60;;;;;;5058771;28;20481;-60
2022/04/07 02:50:31;;;;;;;30.40;3.10;;;10.20;38.80;;;;;;5057070;28;20468;-61
2022/04/07 02:52:59;;;;;;;30.40;2.80;;;10.20;39.20;;;;;;5062696;28;21023;-61
2022/04/07 02:55:27;;;;;;;31.00;2.47;;;10.20;39.40;;;;;;5057675;28;20470;-62
2022/04/07 02:57:54;;;;;;;34.37;3.40;;;10.20;39.60;;;;;;5059773;28;20524;-60
2022/04/07 03:00:20;;;;;;;30.30;3.07;;;10.20;39.70;;;;;;5066129;28;20871;-62
2022/04/07 03:02:47;;;;;;;30.57;2.87;;;10.10;39.80;;;;;;5062152;28;20461;-60
2022/04/07 03:05:15;;;;;;;31.10;3.07;;;10.10;39.50;;;;;;5066418;28;21016;-61
2022/04/07 03:07:42;;;;;;;30.87;2.97;;;10.10;39.80;;;;;;5063962;28;20556;-62
2022/04/07 03:10:11;;;;;;;30.67;3.33;;;10.10;39.70;;;;;;5057784;28;20959;-62
2022/04/07 03:12:38;;;;;;;31.13;2.60;;;10.10;39.70;;;;;;5065141;28;20461;-60
2022/04/07 03:15:06;;;;;;;30.63;3.10;;;10.10;39.30;;;;;;5065835;28;20514;-60
2022/04/07 03:17:33;;;;;;;30.63;2.70;;;10.10;39.30;;;;;;5057093;28;20462;-59
2022/04/07 03:20:00;;;;;;;30.70;3.00;;;10.10;39.30;;;;;;5054300;28;20494;-60
2022/04/07 03:22:27;;;;;;;31.50;2.90;;;10.00;39.10;;;;;;5057840;28;20468;-59
2022/04/07 03:24:53;;;;;;;31.03;3.00;;;10.00;38.90;;;;;;5063263;28;20466;-60
2022/04/07 03:27:22;;;;;;;31.10;2.60;;;10.00;38.60;;;;;;5063052;28;20470;-60
2022/04/07 03:29:48;;;;;;;30.37;2.53;;;10.00;38.10;;;;;;5061730;28;20998;-60
2022/04/07 03:32:15;;;;;;;31.03;2.47;;;10.00;37.60;;;;;;5061823;28;20480;-60
2022/04/07 03:34:42;;;;;;;31.00;2.60;;;10.00;37.20;;;;;;5059228;28;20468;-60
2022/04/07 03:37:09;;;;;;;30.17;2.03;;;10.00;37.00;;;;;;5059966;28;20457;-60
2022/04/07 03:39:35;;;;;;;31.83;2.30;;;10.00;37.00;;;;;;5064181;28;20486;-60
2022/04/07 03:42:03;;;;;;;30.93;2.33;;;9.90;37.20;;;;;;5053002;28;20483;-60
2022/04/07 03:44:31;;;;;;;31.40;3.00;;;9.90;37.20;;;;;;5053960;28;20457;-60
2022/04/07 03:46:58;;;;;;;30.50;2.17;;;9.90;37.10;;;;;;5061347;28;20462;-59
2022/04/07 03:49:25;;;;;;;30.20;1.83;;;9.90;37.10;;;;;;5059872;28;21004;-59
2022/04/07 03:51:52;;;;;;;31.47;2.67;;;10.00;36.80;;;;;;5068537;28;20545;-59
2022/04/07 03:54:19;;;;;;;30.07;1.90;;;10.00;36.70;;;;;;5066457;28;20456;-60
2022/04/07 03:56:46;;;;;;;31.50;2.50;;;10.00;37.00;;;;;;5065939;28;20536;-61
2022/04/07 03:59:13;;;;;;;30.13;2.10;;;10.00;37.10;;;;;;5063352;28;20972;-61
2022/04/07 04:01:41;;;;;;;30.47;2.10;;;10.00;37.00;;;;;;5059048;28;20522;-60
2022/04/07 04:04:08;;;;;;;30.40;2.20;;;10.00;36.80;;;;;;5066005;28;20461;-60
2022/04/07 04:06:35;;;;;;;30.80;2.37;;;10.00;36.20;;;;;;5063510;28;20453;-59
2022/04/07 04:09:03;;;;;;;30.20;1.77;;;10.00;35.60;;;;;;5062819;28;20476;-60
2022/04/07 04:11:29;;;;;;;30.37;2.23;;;9.90;35.20;;;;;;5073967;28;20453;-60
2022/04/07 04:13:56;;;;;;;31.00;2.57;;;9.90;35.10;;;;;;5077611;28;20966;-61
2022/04/07 04:16:23;;;;;;;31.57;3.13;;;9.90;35.00;;;;;;5076405;28;20453;-62
2022/04/07 04:18:51;;;;;;;31.30;2.30;;;9.80;35.00;;;;;;5076284;28;20547;-60
2022/04/07 04:21:18;;;;;;;32.90;2.27;;;9.80;35.10;;;;;;5070619;28;20492;-59
2022/04/07 04:23:44;;;;;;;31.20;2.20;;;9.80;34.70;;;;;;5062295;28;20468;-60
2022/04/07 04:26:11;;;;;;;33.23;2.10;;;9.70;34.80;;;;;;5059846;28;20476;-60
2022/04/07 04:28:38;;;;;;;30.53;2.17;;;9.70;34.70;;;;;;5055745;28;20488;-60
2022/04/07 04:31:05;;;;;;;31.40;2.50;;;9.70;34.50;;;;;;5063493;28;20477;-59
2022/04/07 04:33:31;;;;;;;31.47;2.47;;;9.70;34.60;;;;;;5059830;28;20462;-60
2022/04/07 04:36:00;;;;;;;30.97;2.70;;;9.70;34.50;;;;;;5060517;28;20974;-60
2022/04/07 04:38:26;;;;;;;31.90;2.10;;;9.60;34.30;;;;;;5061350;28;20485;-60
2022/04/07 04:40:53;;;;;;;30.97;2.23;;;9.60;34.50;;;;;;5058510;28;21030;-60
2022/04/07 04:43:20;;;;;;;31.63;2.57;;;9.60;34.30;;;;;;5063909;28;20461;-62
2022/04/07 04:45:47;;;;;;;31.50;4.10;;;9.60;34.20;;;;;;5058547;28;20631;-60
2022/04/07 04:48:14;;;;;;;31.30;2.60;;;9.60;34.20;;;;;;5059807;28;20492;-62
2022/04/07 04:50:41;;;;;;;31.00;2.43;;;9.60;34.40;;;;;;5062672;28;20845;-61
2022/04/07 04:53:09;;;;;;;32.00;2.13;;;9.60;34.60;;;;;;5061017;28;20465;-62
2022/04/07 04:55:36;;;;;;;32.43;2.33;;;9.60;34.50;;;;;;5057482;28;20461;-64
2022/04/07 04:58:02;;;;;;;32.67;3.00;;;9.60;34.50;;;;;;5055843;28;20950;-61
2022/04/07 05:00:29;;;;;;;30.80;2.73;;;9.60;34.40;;;;;;5055645;28;20466;-59
2022/04/07 05:02:56;;;;;;;30.90;2.20;;;9.60;34.30;;;;;;5058419;28;20874;-60
2022/04/07 05:05:23;;;;;;;31.70;2.50;;;9.70;34.50;;;;;;5063490;28;20461;-60
2022/04/07 05:07:49;;;;;;;30.53;2.03;;;9.70;34.50;;;;;;5056762;28;21103;-58
2022/04/07 05:10:18;;;;;;;31.00;2.20;;;9.70;34.20;;;;;;5062366;28;20465;-60
2022/04/07 05:12:45;;;;;;;31.00;2.43;;;9.80;34.20;;;;;;5060020;28;20487;-58
2022/04/07 05:15:12;;;;;;;31.60;2.03;;;9.80;34.20;;;;;;5062077;28;20461;-61
2022/04/07 05:17:39;;;;;;;32.90;2.87;;;10.00;33.60;;;;;;5056803;28;20466;-63
2022/04/07 05:20:08;;;;;;;30.90;2.40;;;10.20;32.70;;;;;;5062559;28;20512;-62
2022/04/07 05:22:34;;;;;;;30.90;2.10;;;10.20;33.00;;;;;;5061003;28;20820;-62
2022/04/07 05:25:01;;;;;;;30.50;2.13;;;10.30;32.20;;;;;;5061454;28;20461;-62
2022/04/07 05:27:32;;;;;;;30.50;2.10;;;10.30;32.20;;;;;;5061207;28;21120;-60
2022/04/07 05:29:59;;;;;;;30.70;2.20;;;10.30;31.90;;;;;;5059976;28;20502;-62
2022/04/07 05:32:26;;;;;;;30.37;2.37;;;10.40;32.20;;;;;;5058882;28;20478;-61
2022/04/07 05:34:52;;;;;;;30.23;2.30;;;10.40;32.10;;;;;;5057140;28;20471;-60
2022/04/07 05:37:19;;;;;;;30.70;2.47;;;10.50;31.60;;;;;;5057613;28;21219;-61
2022/04/07 05:39:46;;;;;;;30.30;1.90;;;10.60;31.70;;;;;;5058128;28;20498;-61
2022/04/07 05:42:13;;;;;;;30.20;2.30;;;10.60;31.10;;;;;;5065525;28;20820;-62
2022/04/07 05:44:41;;;;;;;30.30;1.97;;;10.70;31.30;;;;;;5067531;28;20485;-59
2022/04/07 05:47:08;;;;;;;30.50;2.00;;;10.70;31.00;;;;;;5061799;28;20832;-60
2022/04/07 05:49:34;;;;;;;30.73;2.10;;;10.80;30.80;;;;;;5055424;28;20564;-60
2022/04/07 05:52:03;;;;;;;30.63;2.50;;;10.80;30.90;;;;;;5058173;28;20466;-61
2022/04/07 05:54:30;;;;;;;29.80;2.00;;;11.00;31.20;;;;;;5054864;28;20462;-61
2022/04/07 05:56:57;;;;;;;30.33;2.23;;;11.30;30.30;;;;;;5060256;28;20516;-62
2022/04/07 05:59:23;;;;;;;30.60;2.10;;;11.60;29.40;;;;;;5058308;28;20477;-60
2022/04/07 06:01:51;;;;;;;30.13;2.13;;;12.00;28.80;;;;;;5061465;28;20477;-60
2022/04/07 06:04:18;;;;;;;33.10;2.53;;;12.40;27.40;;;;;;5067109;28;20464;-59
2022/04/07 06:06:46;;;;;;;29.83;2.87;;;12.80;25.90;;;;;;5062889;28;20457;-60
2022/04/07 06:09:12;;;;;;;33.63;2.10;;;13.20;24.60;;;;;;5058995;28;20585;-61
2022/04/07 06:11:39;;;;;;;28.93;2.07;;;13.80;22.80;;;;;;5047108;28;20463;-62
2022/04/07 06:14:06;;;;;;;29.37;2.20;;;14.10;21.40;;;;;;5066506;28;20461;-62
2022/04/07 06:16:32;;;;;;;28.73;2.00;;;14.00;21.00;;;;;;5060392;28;20473;-64
2022/04/07 06:19:01;;;;;;;28.90;2.43;;;13.70;21.60;;;;;;5053358;28;20508;-61
2022/04/07 06:21:29;;;;;;;30.40;4.20;;;13.60;22.70;;;;;;5051969;28;21057;-62
2022/04/07 06:23:56;;;;;;;28.67;2.13;;;13.50;23.50;;;;;;5052728;28;20545;-59
2022/04/07 06:26:23;;;;;;;28.70;1.70;;;14.60;21.00;;;;;;5060692;28;20491;-61
2022/04/07 06:28:50;;;;;;;29.13;2.13;;;14.70;19.80;;;;;;5062813;28;20477;-62
2022/04/07 06:31:17;;;;;;;29.30;2.27;;;14.70;19.80;;;;;;5054500;28;20461;-61
2022/04/07 06:33:44;;;;;;;28.30;1.67;;;14.80;19.40;;;;;;5063685;28;20461;-60
2022/04/07 06:36:13;;;;;;;28.37;2.00;;;15.30;18.40;;;;;;5057648;28;20457;-62
2022/04/07 06:38:39;;;;;;;28.33;1.50;;;16.40;18.20;;;;;;5065426;28;20660;-61
2022/04/07 06:41:06;;;;;;;27.90;1.87;;;18.30;14.60;;;;;;5063505;28;20484;-61
2022/04/07 06:43:33;;;;;;;27.07;1.30;;;19.90;11.40;;;;;;5056317;28;20461;-60
2022/04/07 06:46:00;;;;;;;27.67;1.53;;;21.20;8.50;;;;;;5059441;28;20461;-59
2022/04/07 06:48:26;;;;;;;26.27;1.60;;;21.80;7.80;;;;;;5059954;28;21080;-60
2022/04/07 06:50:53;;;;;;;25.97;1.67;;;23.10;5.90;;;;;;5064499;28;21185;-60
2022/04/07 06:53:21;;;;;;;25.47;1.20;;;24.70;3.90;;;;;;5054064;28;20465;-61
2022/04/07 06:55:48;;;;;;;25.23;1.43;;;26.40;1.40;;;;;;5066973;28;20468;-63
2022/04/07 06:58:15;;;;;;;25.10;1.60;;;27.30;1.00;;;;;;5058376;28;20550;-61
2022/04/07 07:00:44;;;;;;;25.07;1.23;;;27.20;1.00;;;;;;5063289;28;20564;-63
2022/04/07 07:03:13;;;;;;;24.23;1.07;;;27.90;1.00;;;;;;5055351;28;20524;-62
2022/04/07 07:05:40;;;;;;;24.10;1.17;;;28.20;1.00;;;;;;5059584;28;20466;-65
2022/04/07 07:08:11;;;;;;;24.33;1.33;;;28.60;1.00;;;;;;5061226;28;20481;-62
2022/04/07 07:10:39;;;;;;;24.57;1.20;;;29.00;1.00;;;;;;5065584;28;20453;-63
2022/04/07 07:13:06;;;;;;;24.70;1.47;;;28.60;1.00;;;;;;5064069;28;20488;-64
2022/04/07 07:15:33;;;;;;;27.03;1.93;;;27.10;1.00;;;;;;5064281;28;20845;-60
2022/04/07 07:18:00;;;;;;;25.90;1.30;;;26.40;1.00;;;;;;5061615;28;21045;-62
2022/04/07 07:20:27;;;;;;;24.50;1.30;;;26.10;1.00;;;;;;5061643;28;20563;-63
2022/04/07 07:22:54;;;;;;;24.40;1.40;;;27.20;1.00;;;;;;5059311;28;20994;-61
2022/04/07 07:25:21;;;;;;;24.67;1.23;;;28.00;1.00;;;;;;5062836;28;20527;-63
2022/04/07 07:27:49;;;;;;;24.33;1.70;;;29.30;1.00;;;;;;5066934;28;20504;-61
2022/04/07 07:30:17;;;;;;;24.03;1.30;;;30.70;1.00;;;;;;5063048;28;20457;-60
2022/04/07 07:32:45;;;;;;;24.00;1.10;;;31.90;1.00;;;;;;5062340;28;20944;-61
2022/04/07 07:35:13;;;;;;;24.03;1.00;;;31.60;1.00;;;;;;5059647;28;20464;-63
2022/04/07 07:37:48;;;;;;;25.07;2.03;;;29.60;1.00;;;;;;5057213;28;20457;-62
2022/04/07 07:40:15;;;;;;;24.87;1.60;;;27.40;1.00;;;;;;5056381;28;20480;-60
2022/04/07 07:42:42;;;;;;;24.40;1.30;;;27.00;1.00;;;;;;5069207;28;20468;-62
2022/04/07 07:45:10;;;;;;;24.20;1.30;;;27.80;1.00;;;;;;5064453;28;21234;-60
2022/04/07 07:47:37;;;;;;;24.30;1.20;;;28.50;1.00;;;;;;5065731;28;20458;-61
2022/04/07 07:50:05;;;;;;;24.37;1.23;;;29.00;1.00;;;;;;5058524;28;20467;-58
2022/04/07 07:52:32;;;;;;;23.90;1.20;;;29.70;1.00;;;;;;5065310;28;20465;-61
2022/04/07 07:54:58;;;;;;;27.23;1.90;;;30.80;1.00;;;;;;5062014;28;20457;-60
2022/04/07 07:57:25;;;;;;;24.07;1.20;;;32.30;1.00;;;;;;5058408;28;20457;-61
2022/04/07 07:59:52;;;;;;;23.33;1.37;;;32.70;1.00;;;;;;5060186;28;20563;-61
2022/04/07 08:02:20;;;;;;;23.70;2.20;;;33.20;1.00;;;;;;5059074;28;20530;-61
2022/04/07 08:04:47;;;;;;;24.50;1.73;;;33.30;1.00;;;;;;5066331;28;20989;-58
2022/04/07 08:07:14;;;;;;;23.70;1.47;;;31.70;1.00;;;;;;5061065;28;20448;-60
2022/04/07 08:09:41;;;;;;;24.17;1.27;;;29.60;1.00;;;;;;5060764;28;20481;-60
2022/04/07 08:12:08;;;;;;;25.27;1.60;;;28.10;1.00;;;;;;5059381;28;20445;-60
2022/04/07 08:14:35;;;;;;;24.97;1.40;;;26.80;1.00;;;;;;5069123;28;20461;-59
2022/04/07 08:17:02;;;;;;;26.30;2.17;;;26.20;1.00;;;;;;5065204;28;20499;-59
2022/04/07 08:19:30;;;;;;;26.17;1.50;;;25.50;1.00;;;;;;5068314;28;20477;-59
2022/04/07 08:21:57;;;;;;;26.80;2.17;;;24.00;1.00;;;;;;5064584;28;21070;-59
2022/04/07 08:24:24;;;;;;;25.90;1.23;;;23.40;1.30;;;;;;5060688;28;20453;-59
2022/04/07 08:26:50;;;;;;;26.50;1.30;;;24.00;1.00;;;;;;5065640;28;20464;-60
2022/04/07 08:29:17;;;;;;;25.40;1.40;;;23.70;1.00;;;;;;5069132;28;20813;-60
2022/04/07 08:31:44;;;;;;;25.40;1.50;;;23.90;1.80;;;;;;5068383;28;20457;-59
2022/04/07 08:34:11;;;;;;;27.77;1.73;;;23.80;1.00;;;;;;5068560;28;20445;-58
2022/04/07 08:36:40;;;;;;;26.10;1.60;;;23.10;2.00;;;;;;5060035;28;20452;-58
2022/04/07 08:39:07;;;;;;;26.17;1.63;;;22.20;3.30;;;;;;5063846;28;20473;-59
2022/04/07 08:41:35;;;;;;;30.73;2.03;;;21.50;4.50;;;;;;5062460;28;20477;-57
2022/04/07 08:44:01;;;;;;;27.77;1.93;;;20.70;4.80;;;;;;5062534;28;20466;-59
2022/04/07 08:46:29;;;;;;;28.10;2.10;;;20.00;6.30;;;;;;5065444;28;20449;-59
2022/04/07 08:48:56;;;;;;;27.63;1.80;;;19.20;7.40;;;;;;5062048;28;20983;-59
2022/04/07 08:51:25;;;;;;;28.10;2.57;;;18.60;8.50;;;;;;5056910;28;20483;-58
2022/04/07 08:53:54;;;;;;;27.57;1.90;;;18.10;9.80;;;;;;5062643;28;20461;-59
2022/04/07 08:56:22;;;;;;;28.17;2.13;;;17.60;10.60;;;;;;5064783;28;20460;-60
2022/04/07 08:58:48;;;;;;;27.53;1.80;;;17.20;11.30;;;;;;5066598;28;21279;-60
2022/04/07 09:01:15;;;;;;;31.13;3.53;;;17.00;11.80;;;;;;5061318;28;20473;-59
2022/04/07 09:03:43;;;;;;;27.77;1.40;;;16.70;12.20;;;;;;5057763;28;20471;-58
2022/04/07 09:06:11;;;;;;;28.03;2.10;;;16.40;13.10;;;;;;5061151;28;20461;-59
2022/04/07 09:08:39;;;;;;;28.27;1.87;;;16.20;13.80;;;;;;5068180;28;20483;-60
2022/04/07 09:11:09;;;;;;;28.57;1.63;;;16.20;14.60;;;;;;5067994;28;20539;-59
2022/04/07 09:13:39;;;;;;;28.90;1.80;;;16.30;14.50;;;;;;5066784;28;20851;-60
2022/04/07 09:16:07;;;;;;;29.40;2.00;;;16.50;13.70;;;;;;5063009;28;20453;-61
2022/04/07 09:18:36;;;;;;;28.27;2.57;;;16.60;13.50;;;;;;5061120;28;21194;-58
2022/04/07 09:21:02;;;;;;;28.43;1.87;;;16.40;14.10;;;;;;5062360;28;20489;-61
2022/04/07 09:23:30;;;;;;;28.20;1.67;;;16.30;13.90;;;;;;5064408;28;20453;-60
2022/04/07 09:25:58;;;;;;;28.50;1.70;;;16.10;14.30;;;;;;5063593;28;21020;-60
2022/04/07 09:28:30;;;;;;;27.87;1.60;;;16.40;14.60;;;;;;5063571;28;20504;-61
2022/04/07 09:30:58;;;;;;;27.73;1.90;;;17.20;13.30;;;;;;5054280;28;20470;-60
2022/04/07 09:33:26;;;;;;;28.03;1.40;;;18.00;12.10;;;;;;5065576;28;20460;-62
2022/04/07 09:36:05;;;;;;;31.97;1.93;;;19.20;11.10;;;;;;5061689;28;20920;-60
2022/04/07 09:38:32;;;;;;;26.87;1.60;;;20.60;8.60;;;;;;5065103;28;20477;-60
2022/04/07 09:41:07;;;;;;;26.87;2.00;;;21.80;7.00;;;;;;5063384;28;20481;-60
2022/04/07 09:43:45;;;;;;;26.13;1.40;;;23.80;3.90;;;;;;5055203;28;20469;-60
2022/04/07 09:46:13;;;;;;;66.27;3.43;;;24.50;2.60;;;;;;5061071;28;20544;-58
2022/04/07 09:48:41;;;;;;;25.83;1.50;;;24.30;1.80;;;;;;5061566;28;20477;-60
2022/04/07 09:51:09;;;;;;;26.00;1.90;;;23.40;2.70;;;;;;5054456;28;20465;-59
2022/04/07 09:53:38;;;;;;;26.93;1.73;;;23.20;3.10;;;;;;5056383;28;20545;-61
2022/04/07 09:56:06;;;;;;;27.70;1.97;;;22.90;3.20;;;;;;5065783;28;20538;-59
2022/04/07 09:58:36;;;;;;;26.53;1.53;;;22.20;4.60;;;;;;5061488;28;20489;-60
2022/04/07 10:01:05;;;;;;;26.57;1.80;;;21.60;4.70;;;;;;5060362;28;20847;-60
2022/04/07 10:03:32;;;;;;;26.73;1.60;;;20.70;5.80;;;;;;5061181;28;20500;-61
2022/04/07 10:06:00;;;;;;;26.67;1.50;;;19.90;6.90;;;;;;5065065;28;20834;-61
2022/04/07 10:08:27;;;;;;;27.30;1.50;;;19.30;8.60;;;;;;5062735;28;20477;-60
2022/04/07 10:10:55;;;;;;;27.70;1.50;;;19.20;8.80;;;;;;5055846;28;20476;-62
2022/04/07 10:13:22;;;;;;;27.47;1.60;;;18.90;9.50;;;;;;5068616;28;20467;-63
2022/04/07 10:15:49;;;;;;;28.27;2.20;;;18.40;9.90;;;;;;5059266;28;20472;-60
2022/04/07 10:18:23;;;;;;;27.87;1.70;;;18.10;11.00;;;;;;5061537;28;21077;-64
2022/04/07 10:20:57;;;;;;;28.00;1.83;;;17.60;11.30;;;;;;5057363;28;20572;-59
2022/04/07 10:23:43;;;;;;;27.60;1.53;;;17.50;11.90;;;;;;5059628;28;20864;-61
2022/04/07 10:26:12;;;;;;;28.17;2.40;;;17.50;12.30;;;;;;5060801;28;20472;-59
2022/04/07 10:28:38;;;;;;;28.20;1.67;;;17.50;12.60;;;;;;5067203;28;20477;-61
2022/04/07 10:31:14;;;;;;;27.60;1.70;;;17.40;12.60;;;;;;5063157;28;20838;-61
2022/04/07 10:33:44;;;;;;;29.57;1.70;;;17.00;12.70;;;;;;5056011;28;20472;-61
2022/04/07 10:36:15;;;;;;;29.00;1.57;;;16.70;13.50;;;;;;5057689;28;20463;-60
2022/04/07 10:38:44;;;;;;;27.70;1.70;;;16.60;13.20;;;;;;5072288;28;20479;-62
2022/04/07 10:41:11;;;;;;;28.50;1.70;;;16.60;13.90;;;;;;5076234;28;20488;-61
2022/04/07 10:43:39;;;;;;;28.80;1.60;;;16.70;13.90;;;;;;5072888;28;20465;-61
2022/04/07 10:46:10;;;;;;;31.70;2.20;;;16.50;14.10;;;;;;5077611;28;20532;-60
2022/04/07 10:48:38;;;;;;;28.23;1.53;;;16.60;14.60;;;;;;5071829;28;20491;-61
2022/04/07 10:51:08;;;;;;;28.80;1.73;;;16.80;13.70;;;;;;5059080;28;20477;-61
2022/04/07 10:53:36;;;;;;;28.87;1.80;;;17.00;14.10;;;;;;5059939;28;20512;-62
2022/04/07 10:56:08;;;;;;;29.40;2.07;;;16.80;13.90;;;;;;5062846;28;21006;-62
2022/04/07 10:58:47;;;;;;;28.13;1.60;;;16.50;14.60;;;;;;5060065;28;20489;-61
2022/04/07 11:01:15;;;;;;;29.23;1.80;;;16.40;15.70;;;;;;5061033;28;20472;-59
2022/04/07 11:03:42;;;;;;;28.17;2.00;;;16.30;15.20;;;;;;5056952;28;20469;-61
2022/04/07 11:06:11;;;;;;;30.53;1.97;;;16.50;15.60;;;;;;5057055;28;20466;-61
2022/04/07 11:08:38;;;;;;;28.47;1.80;;;16.40;14.80;;;;;;5059102;28;20519;-61
2022/04/07 11:11:05;;;;;;;28.57;2.77;;;16.30;15.10;;;;;;5063013;28;20499;-60
2022/04/07 11:13:41;;;;;;;29.07;2.00;;;16.00;15.80;;;;;;5064965;28;20465;-62
2022/04/07 11:16:18;;;;;;;30.40;2.30;;;16.00;16.50;;;;;;5059942;28;21217;-61
2022/04/07 11:19:16;;;;;;;28.10;2.03;;;16.10;15.80;;;;;;5064598;28;20491;-63
2022/04/07 11:21:50;;;;;;;29.00;1.87;;;16.00;16.10;;;;;;5058494;28;20484;-60
2022/04/07 11:24:24;;;;;;;29.40;2.13;;;16.00;15.80;;;;;;5066314;28;20472;-62
2022/04/07 11:26:53;;;;;;;29.37;1.70;;;16.10;16.20;;;;;;5065019;28;20526;-62
2022/04/07 11:29:32;;;;;;;27.77;1.43;;;16.00;17.00;;;;;;5067262;28;20473;-62
2022/04/07 11:32:07;;;;;;;30.70;1.93;;;16.20;16.60;;;;;;5055773;28;21166;-59
2022/04/07 11:34:51;;;;;;;27.93;1.60;;;16.30;15.70;;;;;;5051407;28;20548;-60
2022/04/07 11:37:20;;;;;;;31.93;1.90;;;16.20;16.30;;;;;;5062480;28;20482;-60
2022/04/07 11:39:50;;;;;;;28.20;2.07;;;16.10;16.20;;;;;;5054375;28;20478;-60
2022/04/07 11:42:18;;;;;;;30.60;2.37;;;15.90;16.50;;;;;;5058194;28;20540;-59
2022/04/07 11:44:46;;;;;;;28.13;1.93;;;15.80;16.50;;;;;;5054637;28;20461;-60
2022/04/07 11:47:23;;;;;;;28.67;1.60;;;15.80;17.10;;;;;;5066609;28;20462;-60
2022/04/07 11:49:50;;;;;;;31.67;2.17;;;15.80;17.90;;;;;;5064153;28;20484;-58
2022/04/07 11:52:23;;;;;;;28.17;2.10;;;16.00;17.30;;;;;;5062270;28;20954;-60
2022/04/07 11:54:55;;;;;;;27.83;1.80;;;16.10;16.50;;;;;;5062592;28;20479;-59
2022/04/07 11:57:24;;;;;;;28.77;2.03;;;16.10;16.20;;;;;;5059413;28;20851;-58
2022/04/07 11:59:51;;;;;;;27.80;1.70;;;16.10;16.20;;;;;;5060016;28;20518;-61
2022/04/07 12:02:22;;;;;;;28.17;2.57;;;16.10;17.10;;;;;;5058664;28;20473;-62
2022/04/07 12:04:55;;;;;;;29.10;2.57;;;16.30;16.40;;;;;;5059821;28;20498;-59
2022/04/07 12:07:23;;;;;;;30.30;2.70;;;16.40;15.90;;;;;;5051645;28;20457;-58
2022/04/07 12:09:50;;;;;;;27.87;1.47;;;16.20;15.60;;;;;;5062157;28;20477;-59
2022/04/07 12:12:18;;;;;;;29.70;2.10;;;16.20;16.10;;;;;;5058726;28;20460;-61
2022/04/07 12:14:46;;;;;;;28.50;1.90;;;16.20;16.50;;;;;;5067669;28;20453;-61
2022/04/07 12:17:12;;;;;;;28.17;1.67;;;16.20;15.70;;;;;;5070716;28;20460;-60
2022/04/07 12:19:45;;;;;;;28.80;1.60;;;16.00;16.30;;;;;;5062021;28;20481;-59
2022/04/07 12:22:13;;;;;;;29.73;3.00;;;15.90;16.20;;;;;;5054479;28;20483;-60
2022/04/07 12:24:59;;;;;;;28.70;2.10;;;15.70;17.00;;;;;;5062997;28;20461;-58
2022/04/07 12:27:27;;;;;;;28.33;1.70;;;15.50;17.90;;;;;;5060607;28;20461;-60
2022/04/07 12:29:54;;;;;;;27.90;1.67;;;15.40;18.50;;;;;;5060916;28;20487;-58
2022/04/07 12:32:21;;;;;;;28.90;2.30;;;15.30;19.10;;;;;;5065516;28;21233;-61
2022/04/07 12:34:57;;;;;;;28.70;2.00;;;15.20;19.80;;;;;;5057916;28;21003;-61
2022/04/07 12:37:33;;;;;;;29.23;1.50;;;15.20;20.30;;;;;;5068585;28;20467;-59
2022/04/07 12:40:01;;;;;;;30.87;2.03;;;15.20;20.00;;;;;;5055696;28;20473;-60
2022/04/07 12:42:28;;;;;;;29.00;2.23;;;15.10;19.60;;;;;;5060399;28;20473;-61
2022/04/07 12:45:06;;;;;;;30.33;2.40;;;15.10;20.00;;;;;;5055196;28;20465;-61